createdAt,value
2023-05-24T00:00:17.365Z,50.54
2023-05-24T00:03:21.600Z,50.61
2023-05-24T00:06:26.073Z,50.58
2023-05-24T00:09:28.185Z,50.56
2023-05-24T00:12:30.370Z,50.65
2023-05-24T00:15:32.407Z,50.53
2023-05-24T00:18:34.456Z,50.63
2023-05-24T00:21:36.782Z,50.66
2023-05-24T00:24:38.893Z,50.50
2023-05-24T00:27:41.140Z,50.47
2023-05-24T00:30:43.480Z,50.66
2023-05-24T00:33:45.748Z,50.62
2023-05-24T00:36:47.901Z,50.76
2023-05-24T00:39:50.026Z,50.56
2023-05-24T00:42:52.135Z,50.68
2023-05-24T00:46:17.845Z,50.69
2023-05-24T00:49:20.454Z,50.79
2023-05-24T00:52:22.553Z,50.83
2023-05-24T00:55:24.641Z,50.77
2023-05-24T00:58:31.059Z,50.75
2023-05-24T01:01:35.271Z,50.86
2023-05-24T01:04:38.282Z,50.84
2023-05-24T01:07:46.056Z,50.92
2023-05-24T01:10:59.254Z,50.92
2023-05-24T01:14:38.114Z,50.83
2023-05-24T01:18:02.868Z,50.89
2023-05-24T01:21:38.796Z,50.64
2023-05-24T01:24:56.464Z,50.77
2023-05-24T01:27:59.720Z,50.81
2023-05-24T01:31:02.551Z,50.80
2023-05-24T01:34:04.859Z,50.80
2023-05-24T01:37:06.927Z,50.84
2023-05-24T01:40:10.054Z,50.89
2023-05-24T01:43:25.194Z,50.94
2023-05-24T01:46:38.495Z,50.91
2023-05-24T01:49:48.618Z,50.99
2023-05-24T01:52:52.332Z,51.01
2023-05-24T01:55:57.088Z,51.05
2023-05-24T01:58:59.895Z,51.08
2023-05-24T02:02:02.903Z,51.09
2023-05-24T02:05:05.635Z,51.11
2023-05-24T02:08:07.800Z,51.15
2023-05-24T02:11:09.937Z,51.17
2023-05-24T02:14:13.326Z,51.14
2023-05-24T02:17:17.906Z,51.28
2023-05-24T02:20:22.497Z,51.24
2023-05-24T02:23:24.601Z,51.24
2023-05-24T02:26:26.647Z,51.25
2023-05-24T02:29:28.758Z,51.22
2023-05-24T02:32:31.370Z,51.14
2023-05-24T02:35:34.297Z,51.28
2023-05-24T02:38:37.147Z,51.30
2023-05-24T02:41:39.268Z,51.31
2023-05-24T02:44:42.789Z,51.32
2023-05-24T02:47:45.428Z,51.42
2023-05-24T02:50:47.621Z,51.40
2023-05-24T02:53:49.830Z,51.35
2023-05-24T02:56:52.727Z,51.39
2023-05-24T02:59:55.911Z,51.27
2023-05-24T03:03:02.509Z,51.30
2023-05-24T03:06:04.886Z,51.20
2023-05-24T03:09:07.164Z,51.24
2023-05-24T03:12:09.463Z,51.29
2023-05-24T03:15:12.125Z,51.33
2023-05-24T03:18:14.283Z,51.35
2023-05-24T03:21:17.188Z,51.37
2023-05-24T03:24:19.382Z,51.37
2023-05-24T03:27:21.438Z,51.31
2023-05-24T03:30:23.555Z,51.37
2023-05-24T03:33:25.744Z,51.31
2023-05-24T03:36:29.139Z,51.34
2023-05-24T03:39:31.405Z,51.46
2023-05-24T03:42:33.493Z,51.22
2023-05-24T03:45:39.813Z,51.26
2023-05-24T03:48:42.289Z,51.35
2023-05-24T03:51:44.407Z,51.29
2023-05-24T03:54:46.499Z,51.37
2023-05-24T03:57:48.614Z,51.38
2023-05-24T04:00:50.867Z,51.39
2023-05-24T04:03:56.200Z,51.43
2023-05-24T04:06:58.325Z,51.50
2023-05-24T04:10:00.580Z,51.52
2023-05-24T04:13:02.687Z,51.56
2023-05-24T04:16:04.839Z,51.58
2023-05-24T04:19:07.292Z,51.56
2023-05-24T04:22:10.543Z,51.59
2023-05-24T04:25:12.781Z,51.68
2023-05-24T04:28:15.298Z,51.93
2023-05-24T04:31:17.426Z,51.67
2023-05-24T04:34:22.180Z,51.67
2023-05-24T04:37:24.656Z,51.72
2023-05-24T04:40:26.745Z,50.98
2023-05-24T04:43:28.997Z,50.74
2023-05-24T04:46:31.515Z,50.95
2023-05-24T04:49:33.823Z,50.66
2023-05-24T04:52:36.533Z,50.82
2023-05-24T04:55:38.641Z,50.50
2023-05-24T04:58:41.128Z,50.82
2023-05-24T05:01:43.330Z,50.73
2023-05-24T05:04:45.484Z,50.27
2023-05-24T05:07:47.830Z,50.60
2023-05-24T05:10:49.954Z,50.46
2023-05-24T05:13:52.233Z,50.37
2023-05-24T05:16:54.372Z,50.06
2023-05-24T05:19:56.901Z,50.19
2023-05-24T05:22:59.031Z,50.09
2023-05-24T05:26:01.157Z,50.03
2023-05-24T05:29:03.247Z,50.36
2023-05-24T05:32:05.789Z,50.43
2023-05-24T05:35:08.457Z,50.54
2023-05-24T05:38:10.554Z,50.29
2023-05-24T05:41:12.716Z,50.34
2023-05-24T05:44:15.009Z,50.34
2023-05-24T05:47:17.399Z,50.47
2023-05-24T05:50:19.622Z,50.46
2023-05-24T05:53:21.729Z,49.94
2023-05-24T05:56:23.845Z,50.18
2023-05-24T05:59:25.976Z,50.09
2023-05-24T06:02:28.180Z,49.97
2023-05-24T06:05:30.332Z,50.19
2023-05-24T06:08:35.113Z,50.32
2023-05-24T06:11:37.425Z,50.04
2023-05-24T06:14:39.572Z,49.63
2023-05-24T06:17:43.729Z,49.92
2023-05-24T06:20:46.427Z,50.09
2023-05-24T06:23:48.921Z,50.25
2023-05-24T06:26:52.411Z,49.60
2023-05-24T06:29:54.583Z,49.46
2023-05-24T06:32:57.002Z,49.59
2023-05-24T06:35:59.104Z,49.47
2023-05-24T06:39:01.597Z,49.59
2023-05-24T06:42:03.972Z,49.50
2023-05-24T06:45:06.695Z,49.85
2023-05-24T06:48:08.949Z,49.81
2023-05-24T06:51:11.526Z,50.08
2023-05-24T06:54:13.630Z,50.42
2023-05-24T06:57:15.790Z,49.90
2023-05-24T07:00:18.743Z,49.30
2023-05-24T07:03:21.240Z,49.74
2023-05-24T07:06:23.357Z,49.46
2023-05-24T07:09:25.583Z,49.91
2023-05-24T07:12:27.783Z,49.76
2023-05-24T07:15:29.980Z,49.79
2023-05-24T07:18:32.054Z,49.29
2023-05-24T07:21:34.199Z,49.72
2023-05-24T07:24:36.508Z,49.69
2023-05-24T07:27:38.594Z,49.84
2023-05-24T07:30:41.648Z,49.82
2023-05-24T07:33:43.799Z,49.89
2023-05-24T07:36:48.401Z,49.94
2023-05-24T07:39:52.057Z,50.27
2023-05-24T07:42:54.170Z,50.04
2023-05-24T07:45:56.434Z,49.69
2023-05-24T07:48:58.678Z,50.16
2023-05-24T07:52:00.855Z,50.06
2023-05-24T07:55:02.982Z,50.07
2023-05-24T07:58:05.076Z,49.96
2023-05-24T08:01:07.687Z,49.95
2023-05-24T08:04:10.387Z,50.35
2023-05-24T08:07:12.666Z,50.05
2023-05-24T08:10:14.829Z,50.09
2023-05-24T08:13:16.969Z,50.17
2023-05-24T08:16:19.275Z,50.13
2023-05-24T08:19:21.869Z,50.18
2023-05-24T08:22:24.065Z,50.90
2023-05-24T08:25:27.229Z,51.39
2023-05-24T08:28:29.794Z,51.45
2023-05-24T08:31:35.100Z,51.10
2023-05-24T08:34:38.346Z,51.04
2023-05-24T08:37:40.547Z,50.83
2023-05-24T08:40:43.054Z,49.73
2023-05-24T08:43:47.810Z,50.23
2023-05-24T08:46:51.049Z,50.19
2023-05-24T08:49:54.500Z,48.51
2023-05-24T08:52:57.925Z,48.43
2023-05-24T08:56:00.207Z,48.18
2023-05-24T08:59:02.322Z,48.07
2023-05-24T09:02:05.763Z,48.54
2023-05-24T09:05:12.486Z,48.52
2023-05-24T09:08:18.111Z,48.02
2023-05-24T09:11:23.029Z,48.09
2023-05-24T09:14:25.250Z,47.91
2023-05-24T09:17:27.633Z,47.92
2023-05-24T09:20:30.361Z,47.55
2023-05-24T09:23:32.799Z,47.66
2023-05-24T09:26:37.205Z,47.71
2023-05-24T09:29:39.367Z,47.34
2023-05-24T09:32:53.774Z,47.66
2023-05-24T09:35:59.146Z,47.51
2023-05-24T09:39:09.517Z,47.28
2023-05-24T09:42:21.070Z,46.91
2023-05-24T09:45:25.223Z,47.25
2023-05-24T09:48:27.495Z,46.94
2023-05-24T09:51:30.140Z,46.60
2023-05-24T09:54:36.998Z,46.80
2023-05-24T09:57:39.216Z,47.23
2023-05-24T10:00:42.292Z,47.46
2023-05-24T10:03:59.295Z,47.22
2023-05-24T10:07:02.576Z,47.54
2023-05-24T10:10:07.706Z,47.73
2023-05-24T10:13:10.378Z,47.98
2023-05-24T10:16:12.888Z,47.81
2023-05-24T10:19:15.315Z,48.30
2023-05-24T10:22:17.898Z,47.44
2023-05-24T10:25:28.579Z,48.21
2023-05-24T10:28:31.299Z,47.96
2023-05-24T10:31:44.910Z,48.31
2023-05-24T10:34:48.004Z,47.67
2023-05-24T10:37:51.146Z,47.92
2023-05-24T10:40:53.633Z,47.34
2023-05-24T10:44:09.181Z,47.33
2023-05-24T10:47:14.216Z,47.77
2023-05-24T10:50:20.042Z,47.65
2023-05-24T10:53:27.885Z,47.57
2023-05-24T10:56:29.969Z,46.99
2023-05-24T10:59:37.882Z,47.02
2023-05-24T11:02:40.426Z,47.18
2023-05-24T11:05:54.030Z,47.16
2023-05-24T11:09:00.718Z,46.89
2023-05-24T11:12:08.009Z,47.02
2023-05-24T11:15:10.879Z,46.64
2023-05-24T11:18:13.871Z,47.13
2023-05-24T11:21:16.333Z,47.44
2023-05-24T11:24:19.953Z,47.38
2023-05-24T11:27:22.959Z,47.06
2023-05-24T11:30:26.497Z,47.18
2023-05-24T11:33:28.910Z,46.88
2023-05-24T11:36:31.471Z,47.16
2023-05-24T11:39:36.506Z,47.23
2023-05-24T11:42:39.288Z,46.73
2023-05-24T11:45:43.076Z,46.97
2023-05-24T11:48:57.685Z,46.85
2023-05-24T11:52:00.917Z,46.75
2023-05-24T11:55:03.091Z,46.61
2023-05-24T11:58:11.723Z,45.12
2023-05-24T12:01:27.315Z,45.04
2023-05-24T12:04:30.171Z,44.76
2023-05-24T12:07:33.036Z,44.64
2023-05-24T12:10:36.786Z,44.54
2023-05-24T12:13:40.741Z,44.64
2023-05-24T12:16:43.875Z,44.11
2023-05-24T12:19:50.970Z,43.90
2023-05-24T12:22:53.753Z,43.04
2023-05-24T12:26:03.371Z,43.34
2023-05-24T12:29:05.825Z,42.85
2023-05-24T12:32:13.275Z,43.03
2023-05-24T12:35:18.617Z,42.09
2023-05-24T12:38:25.480Z,41.99
2023-05-24T12:41:30.675Z,42.39
2023-05-24T12:44:35.617Z,41.73
2023-05-24T12:47:37.786Z,42.00
2023-05-24T12:50:40.014Z,41.80
2023-05-24T12:53:43.314Z,41.08
2023-05-24T12:56:45.644Z,40.65
2023-05-24T12:59:48.233Z,39.70
2023-05-24T13:02:53.072Z,39.17
2023-05-24T13:05:55.702Z,38.69
2023-05-24T13:08:58.136Z,38.87
2023-05-24T13:12:00.227Z,38.50
2023-05-24T13:15:02.611Z,38.60
2023-05-24T13:18:04.996Z,39.46
2023-05-24T13:21:08.364Z,38.37
2023-05-24T13:24:15.609Z,38.53
2023-05-24T13:27:17.820Z,37.87
2023-05-24T13:30:27.417Z,37.04
2023-05-24T13:33:31.053Z,36.98
2023-05-24T13:36:33.618Z,37.50
2023-05-24T13:39:35.814Z,36.88
2023-05-24T13:42:38.012Z,37.38
2023-05-24T13:45:40.261Z,37.68
2023-05-24T13:48:42.364Z,36.76
2023-05-24T13:51:44.474Z,37.22
2023-05-24T13:54:46.579Z,37.47
2023-05-24T13:57:52.129Z,36.50
2023-05-24T14:00:56.213Z,36.05
2023-05-24T14:03:58.493Z,35.79
2023-05-24T14:07:00.760Z,36.08
2023-05-24T14:10:03.145Z,36.47
2023-05-24T14:13:29.060Z,35.63
2023-05-24T14:16:29.346Z,35.53
2023-05-24T14:19:31.833Z,35.90
2023-05-24T14:22:34.087Z,35.26
2023-05-24T14:25:36.639Z,35.28
2023-05-24T14:28:38.750Z,35.39
2023-05-24T14:31:43.900Z,35.63
2023-05-24T14:34:46.030Z,35.92
2023-05-24T14:37:48.113Z,35.85
2023-05-24T14:40:51.239Z,35.16
2023-05-24T14:43:53.521Z,34.45
2023-05-24T14:46:55.784Z,34.78
2023-05-24T14:49:58.100Z,35.37
2023-05-24T14:53:01.055Z,35.69
2023-05-24T14:56:04.905Z,35.81
2023-05-24T14:59:07.208Z,34.61
2023-05-24T15:02:09.402Z,34.99
2023-05-24T15:05:11.523Z,34.25
2023-05-24T15:08:13.721Z,35.34
2023-05-24T15:11:17.586Z,35.00
2023-05-24T15:14:19.735Z,34.16
2023-05-24T15:17:22.140Z,34.32
2023-05-24T15:23:27.753Z,35.02
2023-05-24T15:26:29.838Z,34.32
2023-05-24T15:29:31.979Z,35.21
2023-05-24T15:32:34.185Z,35.02
2023-05-24T15:35:36.466Z,35.69
2023-05-24T15:38:38.741Z,35.98
2023-05-24T15:41:40.821Z,35.74
2023-05-24T15:44:42.961Z,36.08
2023-05-24T15:47:45.108Z,36.11
2023-05-24T15:51:25.614Z,36.06
2023-05-24T15:54:09.705Z,36.72
2023-05-24T15:57:11.784Z,36.81
2023-05-24T16:00:14.323Z,36.93
2023-05-24T16:03:16.679Z,36.66
2023-05-24T16:06:18.896Z,36.75
2023-05-24T16:09:21.089Z,36.45
2023-05-24T16:12:23.424Z,36.72
2023-05-24T16:15:26.572Z,36.83
2023-05-24T16:18:34.067Z,37.46
2023-05-24T16:21:36.363Z,36.56
2023-05-24T16:24:39.661Z,36.95
2023-05-24T16:27:44.273Z,37.76
2023-05-24T16:30:46.373Z,37.45
2023-05-24T16:33:48.618Z,37.68
2023-05-24T16:36:51.093Z,38.09
2023-05-24T16:39:53.233Z,37.08
2023-05-24T16:42:55.637Z,36.30
2023-05-24T16:45:58.015Z,34.62
2023-05-24T16:49:00.591Z,34.34
2023-05-24T16:52:03.271Z,34.33
2023-05-24T16:55:05.885Z,34.16
2023-05-24T16:58:08.084Z,34.63
2023-05-24T17:01:10.384Z,34.65
2023-05-24T17:04:12.540Z,34.51
2023-05-24T17:07:14.772Z,35.28
2023-05-24T17:10:16.919Z,35.36
2023-05-24T17:13:19.097Z,35.17
2023-05-24T17:16:21.932Z,35.28
2023-05-24T17:19:25.180Z,35.21
2023-05-24T17:22:27.286Z,35.66
2023-05-24T17:25:29.370Z,35.56
2023-05-24T17:28:34.197Z,35.46
2023-05-24T17:31:37.403Z,35.96
2023-05-24T17:34:39.475Z,35.95
2023-05-24T17:37:41.686Z,35.88
2023-05-24T17:40:45.243Z,36.46
2023-05-24T17:43:47.316Z,36.72
2023-05-24T17:46:49.464Z,36.79
2023-05-24T17:49:51.905Z,36.78
2023-05-24T17:52:54.077Z,36.76
2023-05-24T17:55:56.292Z,36.50
2023-05-24T17:58:58.604Z,36.57
2023-05-24T18:02:00.702Z,36.29
2023-05-24T18:05:02.826Z,36.67
2023-05-24T18:08:05.047Z,36.05
2023-05-24T18:11:11.305Z,36.52
2023-05-24T18:14:13.695Z,36.20
2023-05-24T18:17:15.932Z,36.13
2023-05-24T18:20:18.250Z,36.32
2023-05-24T18:23:22.300Z,36.56
2023-05-24T18:26:24.841Z,36.78
2023-05-24T18:29:26.915Z,36.40
2023-05-24T18:32:29.101Z,36.48
2023-05-24T18:35:32.161Z,36.21
2023-05-24T18:38:35.157Z,36.61
2023-05-24T18:41:37.550Z,36.79
2023-05-24T18:44:39.958Z,36.85
2023-05-24T18:47:42.118Z,36.65
2023-05-24T18:50:44.242Z,36.72
2023-05-24T18:53:46.370Z,36.65
2023-05-24T18:56:48.494Z,36.88
2023-05-24T18:59:51.212Z,37.11
2023-05-24T19:02:55.352Z,37.00
2023-05-24T19:05:57.480Z,36.78
2023-05-24T19:09:00.481Z,37.13
2023-05-24T19:12:04.537Z,37.13
2023-05-24T19:15:07.493Z,37.00
2023-05-24T19:18:09.812Z,37.21
2023-05-24T19:21:12.518Z,37.52
2023-05-24T19:24:14.726Z,37.66
2023-05-24T19:27:16.907Z,37.59
2023-05-24T19:30:19.140Z,37.88
2023-05-24T19:33:21.234Z,37.76
2023-05-24T19:36:23.384Z,38.03
2023-05-24T19:39:25.449Z,38.43
2023-05-24T19:42:27.728Z,38.40
2023-05-24T19:45:29.832Z,38.28
2023-05-24T19:48:32.354Z,38.88
2023-05-24T19:51:34.947Z,38.57
2023-05-24T19:54:37.356Z,38.56
2023-05-24T19:57:39.525Z,38.51
2023-05-24T20:00:41.653Z,38.68
2023-05-24T20:03:48.314Z,38.55
2023-05-24T20:06:52.665Z,38.83
2023-05-24T20:09:54.860Z,38.75
2023-05-24T20:12:57.172Z,39.08
2023-05-24T20:15:59.267Z,39.21
2023-05-24T20:19:01.398Z,39.12
2023-05-24T20:22:03.601Z,39.50
2023-05-24T20:25:06.377Z,39.27
2023-05-24T20:28:18.223Z,39.31
2023-05-24T20:31:28.201Z,39.33
2023-05-24T20:34:30.858Z,39.37
2023-05-24T20:37:33.753Z,39.65
2023-05-24T20:40:35.995Z,39.04
2023-05-24T20:43:38.172Z,39.82
2023-05-24T20:46:41.161Z,39.42
2023-05-24T20:49:43.348Z,39.56
2023-05-24T20:52:45.494Z,39.65
2023-05-24T20:55:47.607Z,39.92
2023-05-24T20:58:52.747Z,39.85
2023-05-24T21:01:55.299Z,39.91
2023-05-24T21:04:57.740Z,39.68
2023-05-24T21:07:59.807Z,40.01
2023-05-24T21:11:02.094Z,39.94
2023-05-24T21:14:04.203Z,40.10
2023-05-24T21:17:06.476Z,40.41
2023-05-24T21:20:09.134Z,40.60
2023-05-24T21:23:11.422Z,40.56
2023-05-24T21:26:13.559Z,40.39
2023-05-24T21:29:15.805Z,40.66
2023-05-24T21:32:17.951Z,40.69
2023-05-24T21:35:20.039Z,40.59
2023-05-24T21:38:22.099Z,40.70
2023-05-24T21:41:24.476Z,40.54
2023-05-24T21:44:26.593Z,40.68
2023-05-24T21:47:28.678Z,40.87
2023-05-24T21:50:30.811Z,40.72
2023-05-24T21:53:34.900Z,40.98
2023-05-24T21:56:37.769Z,41.00
2023-05-24T21:59:39.841Z,41.01
2023-05-24T22:02:42.096Z,41.24
2023-05-24T22:05:44.658Z,41.12
2023-05-24T22:08:46.832Z,41.16
2023-05-24T22:11:49.016Z,41.33
2023-05-24T22:14:51.158Z,41.26
2023-05-24T22:17:58.177Z,41.50
2023-05-24T22:21:02.184Z,41.60
2023-05-24T22:24:04.923Z,41.51
2023-05-24T22:27:09.694Z,41.52
2023-05-24T22:30:13.043Z,41.59
2023-05-24T22:33:16.349Z,41.77
2023-05-24T22:36:18.754Z,41.92
2023-05-24T22:39:21.148Z,41.84
2023-05-24T22:42:23.396Z,41.93
2023-05-24T22:45:25.483Z,42.03
2023-05-24T22:48:27.602Z,42.10
2023-05-24T22:51:29.715Z,42.33
2023-05-24T22:54:31.792Z,42.25
2023-05-24T22:57:33.897Z,42.32
2023-05-24T23:00:36.200Z,42.39
2023-05-24T23:03:38.311Z,42.40
2023-05-24T23:06:41.748Z,42.50
2023-05-24T23:09:44.422Z,42.48
2023-05-24T23:12:46.779Z,42.74
2023-05-24T23:15:48.935Z,42.66
2023-05-24T23:18:50.997Z,42.90
2023-05-24T23:21:55.326Z,42.77
2023-05-24T23:24:57.412Z,42.81
2023-05-24T23:28:00.846Z,43.11
2023-05-24T23:31:03.022Z,42.93
2023-05-24T23:34:05.722Z,42.99
2023-05-24T23:37:08.041Z,43.13
2023-05-24T23:40:10.675Z,43.13
2023-05-24T23:43:12.773Z,43.42
2023-05-24T23:46:17.104Z,43.32
2023-05-24T23:49:22.254Z,43.57
2023-05-24T23:52:25.057Z,43.48
2023-05-24T23:55:27.182Z,43.58
2023-05-24T23:58:29.265Z,43.73
